Time;durP1;ratioP1;P1;durP2;ratioP2;P2;SDS_P1;SDS_P2;PMS_P1;PMS_P2;Temp;Humidity;BMP_temperature;BMP_pressure;BME280_temperature;BME280_humidity;BME280_pressure;Samples;Min_cycle;Max_cycle;Signal;HPM_P1;HPM_P2
2024/02/16 00:00:19;;;;;;;6.53;2.75;;;13.10;1.00;;;;;;20555590;28;20051;-42
2024/02/16 00:10:21;;;;;;;5.85;2.22;;;13.10;1.00;;;;;;20538253;28;20187;-42
2024/02/16 00:20:23;;;;;;;5.55;2.85;;;13.10;1.00;;;;;;20556705;28;20069;-42
2024/02/16 00:30:24;;;;;;;4.35;2.35;;;13.10;1.00;;;;;;20557479;28;20043;-42
2024/02/16 00:40:26;;;;;;;6.60;2.90;;;12.90;1.00;;;;;;20572061;28;20046;-42
2024/02/16 00:50:26;;;;;;;5.72;2.72;;;12.90;1.00;;;;;;20575223;28;20122;-42
2024/02/16 01:00:27;;;;;;;6.82;2.65;;;12.90;1.00;;;;;;20571193;28;20509;-42
2024/02/16 01:10:28;;;;;;;6.43;2.20;;;12.80;1.00;;;;;;20562781;28;20230;-42
2024/02/16 01:20:30;;;;;;;6.32;2.53;;;12.80;1.00;;;;;;20574319;28;20046;-42
2024/02/16 01:30:31;;;;;;;3.83;2.42;;;12.90;1.00;;;;;;20576094;28;20046;-42
2024/02/16 01:40:32;;;;;;;4.22;2.30;;;12.80;1.00;;;;;;20569667;28;20102;-42
2024/02/16 01:50:33;;;;;;;5.95;3.45;;;12.90;1.00;;;;;;20544655;28;20858;-42
2024/02/16 02:00:33;;;;;;;4.82;2.55;;;12.60;1.00;;;;;;20564980;28;20096;-42
2024/02/16 02:10:34;;;;;;;5.30;2.70;;;12.50;1.00;;;;;;20565305;28;20043;-42
2024/02/16 02:20:34;;;;;;;4.47;2.60;;;12.60;1.00;;;;;;20579244;28;20165;-42
2024/02/16 02:30:35;;;;;;;6.05;2.90;;;12.60;1.00;;;;;;20572816;28;20078;-42
2024/02/16 02:40:36;;;;;;;5.05;2.65;;;12.50;1.00;;;;;;20575679;28;20034;-42
2024/02/16 02:50:37;;;;;;;4.40;2.40;;;12.50;1.00;;;;;;20570219;28;20038;-42
2024/02/16 03:00:37;;;;;;;4.68;2.67;;;12.50;1.00;;;;;;20575697;28;20050;-42
2024/02/16 03:10:39;;;;;;;5.18;2.65;;;12.50;1.00;;;;;;20566964;28;20601;-42
2024/02/16 03:20:39;;;;;;;4.90;2.65;;;12.40;1.00;;;;;;20569295;28;20046;-42
2024/02/16 03:30:41;;;;;;;3.80;2.30;;;12.30;1.00;;;;;;20573591;28;20616;-42
2024/02/16 03:40:41;;;;;;;4.95;2.83;;;12.40;1.00;;;;;;20555856;28;20046;-42
2024/02/16 03:50:42;;;;;;;5.05;2.70;;;12.20;1.00;;;;;;20583935;28;20081;-42
2024/02/16 04:00:43;;;;;;;5.43;2.80;;;12.30;1.00;;;;;;20584092;28;20387;-42
2024/02/16 04:10:46;;;;;;;4.65;2.70;;;12.20;1.00;;;;;;20583916;28;20031;-42
2024/02/16 04:20:47;;;;;;;6.68;3.15;;;12.20;1.00;;;;;;20578832;28;20046;-42
2024/02/16 04:30:47;;;;;;;4.47;2.50;;;12.10;1.00;;;;;;20579221;28;20058;-42
2024/02/16 04:40:48;;;;;;;5.95;2.45;;;12.00;1.00;;;;;;20579245;28;20541;-42
2024/02/16 04:50:49;;;;;;;4.50;2.55;;;12.00;1.00;;;;;;20571582;28;20034;-42
2024/02/16 05:00:49;;;;;;;6.47;2.70;;;12.00;1.00;;;;;;20574204;28;20073;-42
2024/02/16 05:10:50;;;;;;;4.90;2.90;;;12.00;1.00;;;;;;20551317;28;20114;-41
2024/02/16 05:20:50;;;;;;;8.07;3.10;;;11.80;1.00;;;;;;20576974;28;20078;-42
2024/02/16 05:30:51;;;;;;;7.70;2.80;;;11.80;1.00;;;;;;20574820;28;20047;-40
2024/02/16 05:40:56;;;;;;;6.25;3.35;;;11.90;1.00;;;;;;20574800;28;20890;-40
2024/02/16 05:51:00;;;;;;;6.25;3.03;;;11.70;1.00;;;;;;20585909;28;20034;-40
2024/02/16 06:01:01;;;;;;;8.20;3.20;;;11.70;1.00;;;;;;20576787;28;20127;-40
2024/02/16 06:11:06;;;;;;;6.78;3.40;;;11.80;1.00;;;;;;20590605;28;20617;-40
2024/02/16 06:21:07;;;;;;;5.93;3.20;;;11.80;1.00;;;;;;20586755;28;20045;-40
2024/02/16 06:31:07;;;;;;;5.83;3.80;;;11.90;1.00;;;;;;20586515;28;20038;-40
2024/02/16 06:41:08;;;;;;;5.38;3.35;;;12.00;1.00;;;;;;20586590;28;20482;-40
2024/02/16 06:51:09;;;;;;;5.65;3.65;;;12.00;1.40;;;;;;20582653;28;20042;-40
2024/02/16 07:01:10;;;;;;;7.35;3.70;;;12.10;1.00;;;;;;20555165;28;20049;-40
2024/02/16 07:11:11;;;;;;;6.67;3.80;;;12.00;1.10;;;;;;20572093;28;20517;-40
2024/02/16 07:21:12;;;;;;;8.32;4.20;;;12.00;3.10;;;;;;20571257;28;20449;-40
2024/02/16 07:31:14;;;;;;;8.98;4.18;;;12.10;4.50;;;;;;20578815;28;20049;-40
2024/02/16 07:41:14;;;;;;;9.68;4.43;;;12.20;5.50;;;;;;20581965;28;20042;-40
2024/02/16 07:51:15;;;;;;;8.45;4.60;;;12.20;7.70;;;;;;20577712;28;20114;-40
2024/02/16 08:01:15;;;;;;;15.60;10.00;;;12.20;8.90;;;;;;20581744;28;20057;-39
2024/02/16 08:11:16;;;;;;;8.05;4.82;;;12.40;7.90;;;;;;20577536;28;20046;-40
2024/02/16 08:21:16;;;;;;;9.70;5.00;;;12.40;11.50;;;;;;20578125;28;20116;-40
2024/02/16 08:31:18;;;;;;;8.80;4.85;;;12.50;13.80;;;;;;20574644;28;20085;-40
2024/02/16 08:41:19;;;;;;;8.07;4.25;;;12.50;12.80;;;;;;20524464;28;20055;-40
2024/02/16 08:51:19;;;;;;;9.15;4.97;;;12.60;14.10;;;;;;20555224;28;20042;-40
2024/02/16 09:01:43;;;;;;;9.63;4.70;;;12.90;13.60;;;;;;20565264;28;20812;-40
2024/02/16 09:11:44;;;;;;;8.07;4.88;;;12.90;17.70;;;;;;20554700;28;20366;-40
2024/02/16 09:21:44;;;;;;;7.38;4.72;;;13.10;17.80;;;;;;20562465;28;20138;-40
2024/02/16 09:31:48;;;;;;;8.15;5.13;;;13.10;20.70;;;;;;20536273;28;20049;-41
2024/02/16 09:41:52;;;;;;;7.47;4.90;;;13.10;22.00;;;;;;20531560;28;20054;-42
2024/02/16 09:51:55;;;;;;;12.00;5.60;;;13.20;19.60;;;;;;20547632;28;20438;-42
2024/02/16 10:02:00;;;;;;;14.02;7.38;;;13.20;20.70;;;;;;20577823;28;20533;-42
2024/02/16 10:12:01;;;;;;;13.23;8.40;;;13.30;18.40;;;;;;20565048;28;20141;-42
2024/02/16 10:22:11;;;;;;;14.68;7.72;;;13.20;26.10;;;;;;20562326;28;20105;-42
2024/02/16 10:32:13;;;;;;;16.35;8.65;;;12.80;54.70;;;;;;20551876;28;20046;-42
2024/02/16 10:42:14;;;;;;;25.17;11.48;;;12.40;99.90;;;;;;20541413;28;20410;-42
2024/02/16 10:52:17;;;;;;;27.98;13.07;;;12.20;99.90;;;;;;20542819;28;20057;-42
2024/02/16 11:02:18;;;;;;;28.13;12.55;;;12.10;99.90;;;;;;20550475;28;20050;-40
2024/02/16 11:12:18;;;;;;;21.92;11.07;;;12.00;99.90;;;;;;20559219;28;20117;-40
2024/02/16 11:22:20;;;;;;;23.13;12.07;;;11.90;99.90;;;;;;20565065;28;20039;-41
2024/02/16 11:32:20;;;;;;;19.05;10.70;;;11.90;99.90;;;;;;20551627;28;20466;-40
2024/02/16 11:42:21;;;;;;;16.70;8.87;;;11.90;99.90;;;;;;20564751;28;20164;-40
2024/02/16 11:52:22;;;;;;;12.55;7.15;;;12.00;99.90;;;;;;20548762;28;20798;-40
2024/02/16 12:02:24;;;;;;;11.47;7.30;;;11.90;99.90;;;;;;20523984;28;22679;-40
2024/02/16 12:12:26;;;;;;;7.70;5.30;;;11.90;99.90;;;;;;20543987;28;20046;-41
2024/02/16 12:22:26;;;;;;;9.00;4.75;;;11.80;99.90;;;;;;20539820;28;20047;-40
2024/02/16 12:32:28;;;;;;;8.80;4.67;;;11.80;99.90;;;;;;20531045;28;20165;-40
2024/02/16 12:42:29;;;;;;;8.50;5.05;;;12.00;99.90;;;;;;20537025;28;20870;-41
2024/02/16 12:52:29;;;;;;;6.65;4.80;;;12.20;99.90;;;;;;20549778;28;20057;-41
2024/02/16 13:02:31;;;;;;;6.68;3.35;;;12.30;99.90;;;;;;20555653;28;20430;-41
2024/02/16 13:12:31;;;;;;;6.90;3.38;;;12.20;99.90;;;;;;20559343;28;20070;-41
2024/02/16 13:22:36;;;;;;;6.65;3.28;;;12.10;99.90;;;;;;20556085;28;20101;-41
2024/02/16 13:32:39;;;;;;;7.45;4.38;;;12.10;99.90;;;;;;20527166;28;20075;-41
2024/02/16 13:42:40;;;;;;;10.38;5.68;;;12.00;99.90;;;;;;20530665;28;20120;-41
2024/02/16 13:52:41;;;;;;;12.80;6.95;;;11.90;99.90;;;;;;20523188;28;20062;-41
2024/02/16 14:02:42;;;;;;;12.38;7.22;;;11.90;99.90;;;;;;20534275;28;20137;-41
2024/02/16 14:12:46;;;;;;;13.18;7.35;;;12.00;99.90;;;;;;20544187;28;20038;-41
2024/02/16 14:22:47;;;;;;;12.27;8.50;;;12.20;99.90;;;;;;20551103;28;20668;-41
2024/02/16 14:32:47;;;;;;;11.88;7.63;;;12.20;99.90;;;;;;20529151;28;20482;-41
2024/02/16 14:42:48;;;;;;;14.32;9.23;;;12.20;99.90;;;;;;20541990;28;20047;-41
2024/02/16 14:52:48;;;;;;;14.43;9.55;;;12.30;99.90;;;;;;20553854;28;20039;-41
2024/02/16 15:02:49;;;;;;;16.25;9.32;;;12.30;99.90;;;;;;20565353;28;20082;-41
2024/02/16 15:12:50;;;;;;;15.50;8.48;;;12.20;99.90;;;;;;20550395;28;20506;-41
2024/02/16 15:22:50;;;;;;;12.35;8.23;;;12.20;99.90;;;;;;20550872;28;20079;-41
2024/02/16 15:32:51;;;;;;;13.00;8.40;;;12.20;99.90;;;;;;20535096;28;20145;-41
2024/02/16 15:43:03;;;;;;;16.92;8.88;;;12.40;99.90;;;;;;20546295;28;20050;-41
2024/02/16 15:53:04;;;;;;;13.40;8.43;;;12.40;99.90;;;;;;20555955;28;20042;-41
2024/02/16 16:03:04;;;;;;;13.88;8.05;;;12.50;99.90;;;;;;20563726;28;20053;-41
2024/02/16 16:13:06;;;;;;;16.15;9.63;;;12.30;99.90;;;;;;20544932;28;20102;-41
2024/02/16 16:23:08;;;;;;;12.43;8.43;;;12.20;99.90;;;;;;20535182;28;20412;-41
2024/02/16 16:33:10;;;;;;;13.48;7.85;;;12.10;99.90;;;;;;20533356;28;20046;-41
2024/02/16 16:43:11;;;;;;;12.17;7.93;;;12.10;99.90;;;;;;20532484;28;20061;-40
2024/02/16 16:53:12;;;;;;;10.63;7.47;;;12.00;99.90;;;;;;20536102;28;20512;-40
2024/02/16 17:03:14;;;;;;;11.55;7.32;;;11.90;99.90;;;;;;20536025;28;20066;-40
2024/02/16 17:13:15;;;;;;;12.95;6.53;;;11.80;99.90;;;;;;20538290;28;20054;-40
2024/02/16 17:23:15;;;;;;;12.65;6.03;;;11.80;99.90;;;;;;20561730;28;20395;-41
2024/02/16 17:33:16;;;;;;;11.07;7.17;;;11.60;99.90;;;;;;20557185;28;20039;-40
2024/02/16 17:43:16;;;;;;;11.52;6.57;;;11.50;99.90;;;;;;20564528;28;20462;-40
2024/02/16 17:53:18;;;;;;;11.85;6.72;;;11.40;99.90;;;;;;20565213;28;20067;-40
2024/02/16 18:03:19;;;;;;;11.82;6.50;;;11.40;99.90;;;;;;20549886;28;20065;-40
2024/02/16 18:13:21;;;;;;;13.07;7.38;;;11.40;99.90;;;;;;20568409;28;20106;-40
2024/02/16 18:23:21;;;;;;;22.92;12.02;;;11.40;99.90;;;;;;20542729;28;20053;-40
2024/02/16 18:33:22;;;;;;;12.88;7.05;;;11.20;99.90;;;;;;20534538;28;20901;-40
2024/02/16 18:43:23;;;;;;;13.38;7.30;;;11.20;99.90;;;;;;20530312;28;20481;-40
2024/02/16 18:53:24;;;;;;;14.00;7.47;;;11.10;99.90;;;;;;20548710;28;20031;-40
2024/02/16 19:03:25;;;;;;;12.65;8.02;;;11.10;99.90;;;;;;20560433;28;20041;-40
2024/02/16 19:13:26;;;;;;;12.27;6.10;;;11.10;99.90;;;;;;20550033;28;20140;-40
2024/02/16 19:23:26;;;;;;;11.55;7.00;;;11.00;99.90;;;;;;20550112;28;20507;-40
2024/02/16 19:33:27;;;;;;;16.30;8.45;;;10.90;99.90;;;;;;20484773;28;20105;-40
2024/02/16 19:43:28;;;;;;;14.13;7.35;;;10.70;99.90;;;;;;20529601;28;20050;-40
2024/02/16 19:53:29;;;;;;;12.60;6.72;;;10.50;99.90;;;;;;20539382;28;20047;-40
2024/02/16 20:03:29;;;;;;;15.30;8.35;;;10.40;99.90;;;;;;20532123;28;20132;-40
2024/02/16 20:13:31;;;;;;;18.23;7.97;;;10.40;99.90;;;;;;20520883;28;20498;-40
2024/02/16 20:23:31;;;;;;;16.90;7.40;;;10.40;99.90;;;;;;20548592;28;20438;-40
2024/02/16 20:33:32;;;;;;;15.95;8.00;;;10.40;99.90;;;;;;20547454;28;20049;-40
2024/02/16 20:43:33;;;;;;;14.18;7.68;;;10.30;99.90;;;;;;20525698;28;20038;-40
2024/02/16 20:53:34;;;;;;;18.00;8.93;;;10.30;99.90;;;;;;20531403;28;20555;-40
2024/02/16 21:03:36;;;;;;;20.65;9.65;;;10.40;99.90;;;;;;20526425;28;20721;-40
2024/02/16 21:13:37;;;;;;;16.55;8.88;;;10.40;99.90;;;;;;20538381;28;20057;-40
2024/02/16 21:23:37;;;;;;;15.57;8.68;;;10.40;99.90;;;;;;20549121;28;20506;-40
2024/02/16 21:33:38;;;;;;;20.98;8.95;;;10.30;99.90;;;;;;20536049;28;20046;-40
2024/02/16 21:43:38;;;;;;;20.65;8.95;;;10.30;99.90;;;;;;20523633;28;20043;-40
2024/02/16 21:53:39;;;;;;;21.15;9.73;;;10.10;99.90;;;;;;20526784;28;20046;-40
2024/02/16 22:03:40;;;;;;;18.48;8.75;;;10.10;99.90;;;;;;20523584;28;20092;-40
2024/02/16 22:13:40;;;;;;;19.40;10.60;;;10.00;99.90;;;;;;20540134;28;20146;-40
2024/02/16 22:23:41;;;;;;;21.47;10.00;;;9.90;99.90;;;;;;20548491;28;20431;-40
2024/02/16 22:33:41;;;;;;;17.58;9.98;;;9.70;99.90;;;;;;20556891;28;20759;-40
2024/02/16 22:43:42;;;;;;;17.90;10.18;;;9.70;99.90;;;;;;20562006;28;20427;-40
2024/02/16 22:53:43;;;;;;;17.58;9.68;;;9.70;99.90;;;;;;20550037;28;20053;-40
2024/02/16 23:03:43;;;;;;;18.27;8.97;;;9.80;99.90;;;;;;20548360;28;20051;-40
2024/02/16 23:13:44;;;;;;;16.73;8.43;;;9.90;99.90;;;;;;20554730;28;20537;-40
2024/02/16 23:23:45;;;;;;;19.95;7.75;;;10.00;99.90;;;;;;20561106;28;20509;-40
2024/02/16 23:33:45;;;;;;;15.15;6.50;;;9.90;99.90;;;;;;20563805;28;20362;-40
2024/02/16 23:43:46;;;;;;;17.10;5.93;;;9.90;99.90;;;;;;20561900;28;20129;-40
2024/02/16 23:53:46;;;;;;;15.20;6.20;;;10.10;99.90;;;;;;20553831;28;20040;-40
